sensor_id;sensor_type;location;lat;lon;timestamp;P1;durP1;ratioP1;P2;durP2;ratioP2
25123;SDS011;13104;51.030;4.686;2022-11-20T00:01:23;30.90;;;19.60;;
25123;SDS011;13104;51.030;4.686;2022-11-20T00:03:54;33.67;;;20.23;;
25123;SDS011;13104;51.030;4.686;2022-11-20T00:06:20;33.50;;;20.35;;
25123;SDS011;13104;51.030;4.686;2022-11-20T00:08:47;33.97;;;19.30;;
25123;SDS011;13104;51.030;4.686;2022-11-20T00:11:17;33.95;;;19.80;;
25123;SDS011;13104;51.030;4.686;2022-11-20T00:13:44;32.33;;;20.17;;
25123;SDS011;13104;51.030;4.686;2022-11-20T00:16:11;30.75;;;19.20;;
25123;SDS011;13104;51.030;4.686;2022-11-20T00:18:37;30.92;;;19.40;;
25123;SDS011;13104;51.030;4.686;2022-11-20T00:21:04;34.28;;;19.55;;
25123;SDS011;13104;51.030;4.686;2022-11-20T00:23:30;34.28;;;20.25;;
25123;SDS011;13104;51.030;4.686;2022-11-20T00:25:56;33.47;;;20.02;;
25123;SDS011;13104;51.030;4.686;2022-11-20T00:28:27;33.65;;;19.15;;
25123;SDS011;13104;51.030;4.686;2022-11-20T00:30:59;32.88;;;20.58;;
25123;SDS011;13104;51.030;4.686;2022-11-20T00:33:25;34.30;;;20.48;;
25123;SDS011;13104;51.030;4.686;2022-11-20T00:35:51;34.00;;;20.20;;
25123;SDS011;13104;51.030;4.686;2022-11-20T00:38:17;29.95;;;19.25;;
25123;SDS011;13104;51.030;4.686;2022-11-20T00:40:43;33.50;;;20.20;;
25123;SDS011;13104;51.030;4.686;2022-11-20T00:43:09;36.38;;;20.75;;
25123;SDS011;13104;51.030;4.686;2022-11-20T00:45:35;33.33;;;20.67;;
25123;SDS011;13104;51.030;4.686;2022-11-20T00:48:01;35.50;;;20.08;;
25123;SDS011;13104;51.030;4.686;2022-11-20T00:50:28;35.55;;;19.73;;
25123;SDS011;13104;51.030;4.686;2022-11-20T00:52:54;33.15;;;21.13;;
25123;SDS011;13104;51.030;4.686;2022-11-20T00:55:20;36.38;;;20.80;;
25123;SDS011;13104;51.030;4.686;2022-11-20T00:57:46;34.28;;;19.17;;
25123;SDS011;13104;51.030;4.686;2022-11-20T01:00:12;32.53;;;20.52;;
25123;SDS011;13104;51.030;4.686;2022-11-20T01:02:38;35.53;;;20.48;;
25123;SDS011;13104;51.030;4.686;2022-11-20T01:05:04;35.92;;;20.85;;
25123;SDS011;13104;51.030;4.686;2022-11-20T01:07:31;31.15;;;19.60;;
25123;SDS011;13104;51.030;4.686;2022-11-20T01:09:58;33.80;;;19.80;;
25123;SDS011;13104;51.030;4.686;2022-11-20T01:12:24;32.75;;;19.27;;
25123;SDS011;13104;51.030;4.686;2022-11-20T01:14:50;35.83;;;19.60;;
25123;SDS011;13104;51.030;4.686;2022-11-20T01:17:16;32.60;;;19.92;;
25123;SDS011;13104;51.030;4.686;2022-11-20T01:19:42;32.50;;;19.70;;
25123;SDS011;13104;51.030;4.686;2022-11-20T01:22:09;32.95;;;19.95;;
25123;SDS011;13104;51.030;4.686;2022-11-20T01:24:35;28.55;;;18.08;;
25123;SDS011;13104;51.030;4.686;2022-11-20T01:27:01;33.25;;;20.45;;
25123;SDS011;13104;51.030;4.686;2022-11-20T01:29:27;32.08;;;19.70;;
25123;SDS011;13104;51.030;4.686;2022-11-20T01:31:53;31.52;;;18.92;;
25123;SDS011;13104;51.030;4.686;2022-11-20T01:34:19;35.10;;;19.85;;
25123;SDS011;13104;51.030;4.686;2022-11-20T01:36:47;38.38;;;20.42;;
25123;SDS011;13104;51.030;4.686;2022-11-20T01:39:18;31.85;;;18.58;;
25123;SDS011;13104;51.030;4.686;2022-11-20T01:41:44;32.83;;;20.33;;
25123;SDS011;13104;51.030;4.686;2022-11-20T01:47:14;33.20;;;20.58;;
25123;SDS011;13104;51.030;4.686;2022-11-20T01:49:46;33.55;;;20.00;;
25123;SDS011;13104;51.030;4.686;2022-11-20T01:52:17;34.05;;;20.20;;
25123;SDS011;13104;51.030;4.686;2022-11-20T01:54:47;32.33;;;20.45;;
25123;SDS011;13104;51.030;4.686;2022-11-20T01:57:14;43.40;;;20.05;;
25123;SDS011;13104;51.030;4.686;2022-11-20T01:59:43;31.83;;;20.15;;
25123;SDS011;13104;51.030;4.686;2022-11-20T02:02:10;35.67;;;20.35;;
25123;SDS011;13104;51.030;4.686;2022-11-20T02:04:36;32.38;;;20.48;;
25123;SDS011;13104;51.030;4.686;2022-11-20T02:07:02;35.90;;;20.15;;
25123;SDS011;13104;51.030;4.686;2022-11-20T02:09:30;33.72;;;19.48;;
25123;SDS011;13104;51.030;4.686;2022-11-20T02:11:56;33.20;;;20.02;;
25123;SDS011;13104;51.030;4.686;2022-11-20T02:14:23;31.15;;;19.83;;
25123;SDS011;13104;51.030;4.686;2022-11-20T02:16:50;35.92;;;20.63;;
25123;SDS011;13104;51.030;4.686;2022-11-20T02:19:23;34.30;;;19.60;;
25123;SDS011;13104;51.030;4.686;2022-11-20T02:21:54;38.40;;;21.40;;
25123;SDS011;13104;51.030;4.686;2022-11-20T02:24:22;35.20;;;21.08;;
25123;SDS011;13104;51.030;4.686;2022-11-20T02:27:02;33.95;;;19.70;;
25123;SDS011;13104;51.030;4.686;2022-11-20T02:32:05;40.40;;;22.08;;
25123;SDS011;13104;51.030;4.686;2022-11-20T02:34:31;42.38;;;21.42;;
25123;SDS011;13104;51.030;4.686;2022-11-20T02:36:57;40.20;;;20.73;;
25123;SDS011;13104;51.030;4.686;2022-11-20T02:39:25;35.85;;;21.10;;
25123;SDS011;13104;51.030;4.686;2022-11-20T02:41:53;33.83;;;20.35;;
25123;SDS011;13104;51.030;4.686;2022-11-20T02:44:19;34.72;;;19.95;;
25123;SDS011;13104;51.030;4.686;2022-11-20T02:46:45;38.15;;;21.73;;
25123;SDS011;13104;51.030;4.686;2022-11-20T02:49:12;38.47;;;22.85;;
25123;SDS011;13104;51.030;4.686;2022-11-20T02:51:38;39.63;;;21.80;;
25123;SDS011;13104;51.030;4.686;2022-11-20T02:54:04;36.25;;;21.55;;
25123;SDS011;13104;51.030;4.686;2022-11-20T02:56:30;39.22;;;21.58;;
25123;SDS011;13104;51.030;4.686;2022-11-20T02:58:56;39.58;;;23.42;;
25123;SDS011;13104;51.030;4.686;2022-11-20T03:01:22;36.83;;;21.48;;
25123;SDS011;13104;51.030;4.686;2022-11-20T03:03:49;37.72;;;20.70;;
25123;SDS011;13104;51.030;4.686;2022-11-20T03:06:15;42.47;;;23.05;;
25123;SDS011;13104;51.030;4.686;2022-11-20T03:08:42;38.42;;;22.00;;
25123;SDS011;13104;51.030;4.686;2022-11-20T03:11:08;43.50;;;23.45;;
25123;SDS011;13104;51.030;4.686;2022-11-20T03:13:34;41.40;;;22.30;;
25123;SDS011;13104;51.030;4.686;2022-11-20T03:16:07;39.35;;;22.83;;
25123;SDS011;13104;51.030;4.686;2022-11-20T03:18:33;41.20;;;22.95;;
25123;SDS011;13104;51.030;4.686;2022-11-20T03:21:00;40.13;;;21.75;;
25123;SDS011;13104;51.030;4.686;2022-11-20T03:23:26;37.17;;;21.67;;
25123;SDS011;13104;51.030;4.686;2022-11-20T03:25:54;41.83;;;22.60;;
25123;SDS011;13104;51.030;4.686;2022-11-20T03:28:20;38.00;;;21.35;;
25123;SDS011;13104;51.030;4.686;2022-11-20T03:30:47;35.22;;;20.70;;
25123;SDS011;13104;51.030;4.686;2022-11-20T03:33:13;39.10;;;21.67;;
25123;SDS011;13104;51.030;4.686;2022-11-20T03:35:39;38.03;;;23.17;;
25123;SDS011;13104;51.030;4.686;2022-11-20T03:38:05;40.33;;;24.08;;
25123;SDS011;13104;51.030;4.686;2022-11-20T03:40:31;36.55;;;21.67;;
25123;SDS011;13104;51.030;4.686;2022-11-20T03:42:57;38.45;;;22.70;;
25123;SDS011;13104;51.030;4.686;2022-11-20T03:45:23;41.05;;;22.25;;
25123;SDS011;13104;51.030;4.686;2022-11-20T03:47:50;40.78;;;23.50;;
25123;SDS011;13104;51.030;4.686;2022-11-20T03:50:16;43.80;;;23.30;;
25123;SDS011;13104;51.030;4.686;2022-11-20T03:52:42;41.35;;;23.77;;
25123;SDS011;13104;51.030;4.686;2022-11-20T03:55:08;40.55;;;23.17;;
25123;SDS011;13104;51.030;4.686;2022-11-20T03:57:35;46.78;;;23.63;;
25123;SDS011;13104;51.030;4.686;2022-11-20T04:00:01;40.67;;;24.15;;
25123;SDS011;13104;51.030;4.686;2022-11-20T04:02:27;42.83;;;23.23;;
25123;SDS011;13104;51.030;4.686;2022-11-20T04:04:53;48.03;;;24.65;;
25123;SDS011;13104;51.030;4.686;2022-11-20T04:07:19;41.38;;;23.45;;
25123;SDS011;13104;51.030;4.686;2022-11-20T04:09:45;47.75;;;24.83;;
25123;SDS011;13104;51.030;4.686;2022-11-20T04:12:12;47.40;;;24.42;;
25123;SDS011;13104;51.030;4.686;2022-11-20T04:14:38;45.92;;;25.05;;
25123;SDS011;13104;51.030;4.686;2022-11-20T04:17:04;45.75;;;24.75;;
25123;SDS011;13104;51.030;4.686;2022-11-20T04:19:30;43.58;;;24.40;;
25123;SDS011;13104;51.030;4.686;2022-11-20T04:21:56;48.90;;;26.58;;
25123;SDS011;13104;51.030;4.686;2022-11-20T04:24:22;45.63;;;25.20;;
25123;SDS011;13104;51.030;4.686;2022-11-20T04:26:48;46.97;;;25.60;;
25123;SDS011;13104;51.030;4.686;2022-11-20T04:29:15;46.22;;;24.30;;
25123;SDS011;13104;51.030;4.686;2022-11-20T04:31:41;46.63;;;25.83;;
25123;SDS011;13104;51.030;4.686;2022-11-20T04:34:07;43.75;;;25.02;;
25123;SDS011;13104;51.030;4.686;2022-11-20T04:36:34;42.13;;;23.75;;
25123;SDS011;13104;51.030;4.686;2022-11-20T04:39:01;44.60;;;25.25;;
25123;SDS011;13104;51.030;4.686;2022-11-20T04:41:29;46.88;;;25.65;;
25123;SDS011;13104;51.030;4.686;2022-11-20T04:43:56;47.50;;;25.38;;
25123;SDS011;13104;51.030;4.686;2022-11-20T04:46:24;45.40;;;24.25;;
25123;SDS011;13104;51.030;4.686;2022-11-20T04:48:51;43.83;;;24.23;;
25123;SDS011;13104;51.030;4.686;2022-11-20T04:51:17;43.97;;;26.45;;
25123;SDS011;13104;51.030;4.686;2022-11-20T04:53:43;49.90;;;25.33;;
25123;SDS011;13104;51.030;4.686;2022-11-20T04:56:10;39.33;;;23.77;;
25123;SDS011;13104;51.030;4.686;2022-11-20T04:58:36;50.85;;;25.38;;
25123;SDS011;13104;51.030;4.686;2022-11-20T05:01:03;47.20;;;25.55;;
25123;SDS011;13104;51.030;4.686;2022-11-20T05:03:30;42.40;;;25.40;;
25123;SDS011;13104;51.030;4.686;2022-11-20T05:05:56;48.85;;;25.85;;
25123;SDS011;13104;51.030;4.686;2022-11-20T05:08:23;49.17;;;26.42;;
25123;SDS011;13104;51.030;4.686;2022-11-20T05:10:49;45.97;;;25.48;;
25123;SDS011;13104;51.030;4.686;2022-11-20T05:13:15;46.20;;;25.90;;
25123;SDS011;13104;51.030;4.686;2022-11-20T05:15:41;47.25;;;25.35;;
25123;SDS011;13104;51.030;4.686;2022-11-20T05:18:07;46.58;;;25.50;;
25123;SDS011;13104;51.030;4.686;2022-11-20T05:20:33;48.85;;;26.08;;
25123;SDS011;13104;51.030;4.686;2022-11-20T05:23:01;46.45;;;24.77;;
25123;SDS011;13104;51.030;4.686;2022-11-20T05:25:27;48.92;;;26.25;;
25123;SDS011;13104;51.030;4.686;2022-11-20T05:27:53;49.88;;;25.88;;
25123;SDS011;13104;51.030;4.686;2022-11-20T05:30:19;50.83;;;26.33;;
25123;SDS011;13104;51.030;4.686;2022-11-20T05:32:45;52.63;;;26.27;;
25123;SDS011;13104;51.030;4.686;2022-11-20T05:35:11;50.00;;;25.50;;
25123;SDS011;13104;51.030;4.686;2022-11-20T05:37:37;54.65;;;27.42;;
25123;SDS011;13104;51.030;4.686;2022-11-20T05:40:03;57.97;;;26.75;;
25123;SDS011;13104;51.030;4.686;2022-11-20T05:42:30;50.72;;;25.77;;
25123;SDS011;13104;51.030;4.686;2022-11-20T05:44:57;49.92;;;26.00;;
25123;SDS011;13104;51.030;4.686;2022-11-20T05:47:23;49.28;;;27.33;;
25123;SDS011;13104;51.030;4.686;2022-11-20T05:49:50;54.38;;;27.45;;
25123;SDS011;13104;51.030;4.686;2022-11-20T05:52:16;52.15;;;27.88;;
25123;SDS011;13104;51.030;4.686;2022-11-20T05:54:42;52.47;;;27.80;;
25123;SDS011;13104;51.030;4.686;2022-11-20T05:57:08;50.60;;;26.35;;
25123;SDS011;13104;51.030;4.686;2022-11-20T05:59:34;55.40;;;27.25;;
25123;SDS011;13104;51.030;4.686;2022-11-20T06:02:00;52.78;;;25.90;;
25123;SDS011;13104;51.030;4.686;2022-11-20T06:04:26;48.40;;;27.17;;
25123;SDS011;13104;51.030;4.686;2022-11-20T06:06:53;55.58;;;27.33;;
25123;SDS011;13104;51.030;4.686;2022-11-20T06:09:19;50.08;;;26.00;;
25123;SDS011;13104;51.030;4.686;2022-11-20T06:11:45;56.13;;;27.33;;
25123;SDS011;13104;51.030;4.686;2022-11-20T06:14:11;53.75;;;26.15;;
25123;SDS011;13104;51.030;4.686;2022-11-20T06:16:37;51.13;;;25.95;;
25123;SDS011;13104;51.030;4.686;2022-11-20T06:19:03;55.15;;;27.52;;
25123;SDS011;13104;51.030;4.686;2022-11-20T06:21:30;55.25;;;28.02;;
25123;SDS011;13104;51.030;4.686;2022-11-20T06:23:56;54.75;;;28.48;;
25123;SDS011;13104;51.030;4.686;2022-11-20T06:26:23;56.05;;;27.52;;
25123;SDS011;13104;51.030;4.686;2022-11-20T06:28:50;58.95;;;27.27;;
25123;SDS011;13104;51.030;4.686;2022-11-20T06:31:17;57.65;;;28.10;;
25123;SDS011;13104;51.030;4.686;2022-11-20T06:33:43;60.55;;;28.73;;
25123;SDS011;13104;51.030;4.686;2022-11-20T06:36:10;58.22;;;28.55;;
25123;SDS011;13104;51.030;4.686;2022-11-20T06:38:37;56.67;;;27.52;;
25123;SDS011;13104;51.030;4.686;2022-11-20T06:41:04;63.25;;;27.58;;
25123;SDS011;13104;51.030;4.686;2022-11-20T06:43:30;62.53;;;29.40;;
25123;SDS011;13104;51.030;4.686;2022-11-20T06:45:56;58.30;;;28.67;;
25123;SDS011;13104;51.030;4.686;2022-11-20T06:48:23;59.20;;;29.13;;
25123;SDS011;13104;51.030;4.686;2022-11-20T06:50:50;54.28;;;28.17;;
25123;SDS011;13104;51.030;4.686;2022-11-20T06:53:16;64.03;;;29.10;;
25123;SDS011;13104;51.030;4.686;2022-11-20T06:55:43;70.93;;;31.25;;
25123;SDS011;13104;51.030;4.686;2022-11-20T06:58:09;70.85;;;31.38;;
25123;SDS011;13104;51.030;4.686;2022-11-20T07:00:35;185.40;;;84.25;;
25123;SDS011;13104;51.030;4.686;2022-11-20T07:03:04;79.78;;;38.33;;
25123;SDS011;13104;51.030;4.686;2022-11-20T07:05:31;72.82;;;33.40;;
25123;SDS011;13104;51.030;4.686;2022-11-20T07:07:57;71.85;;;33.35;;
25123;SDS011;13104;51.030;4.686;2022-11-20T07:10:24;73.35;;;33.25;;
25123;SDS011;13104;51.030;4.686;2022-11-20T07:12:50;73.40;;;33.10;;
25123;SDS011;13104;51.030;4.686;2022-11-20T07:15:17;76.55;;;35.17;;
25123;SDS011;13104;51.030;4.686;2022-11-20T07:17:43;73.15;;;33.55;;
25123;SDS011;13104;51.030;4.686;2022-11-20T07:20:09;77.45;;;34.50;;
25123;SDS011;13104;51.030;4.686;2022-11-20T07:22:35;78.72;;;35.42;;
25123;SDS011;13104;51.030;4.686;2022-11-20T07:25:01;73.03;;;34.00;;
25123;SDS011;13104;51.030;4.686;2022-11-20T07:27:28;73.53;;;34.38;;
25123;SDS011;13104;51.030;4.686;2022-11-20T07:29:54;75.88;;;33.65;;
25123;SDS011;13104;51.030;4.686;2022-11-20T07:32:21;77.80;;;34.38;;
25123;SDS011;13104;51.030;4.686;2022-11-20T07:34:47;71.80;;;33.90;;
25123;SDS011;13104;51.030;4.686;2022-11-20T07:37:13;66.65;;;32.58;;
25123;SDS011;13104;51.030;4.686;2022-11-20T07:39:39;70.88;;;32.88;;
25123;SDS011;13104;51.030;4.686;2022-11-20T07:42:05;74.53;;;33.85;;
25123;SDS011;13104;51.030;4.686;2022-11-20T07:44:32;73.82;;;32.78;;
25123;SDS011;13104;51.030;4.686;2022-11-20T07:46:58;71.07;;;33.00;;
25123;SDS011;13104;51.030;4.686;2022-11-20T07:49:24;67.20;;;32.20;;
25123;SDS011;13104;51.030;4.686;2022-11-20T07:51:51;65.65;;;32.60;;
25123;SDS011;13104;51.030;4.686;2022-11-20T07:54:20;70.00;;;32.38;;
25123;SDS011;13104;51.030;4.686;2022-11-20T07:56:46;66.07;;;33.75;;
25123;SDS011;13104;51.030;4.686;2022-11-20T07:59:13;67.60;;;33.17;;
25123;SDS011;13104;51.030;4.686;2022-11-20T08:01:39;68.25;;;34.05;;
25123;SDS011;13104;51.030;4.686;2022-11-20T08:04:05;74.18;;;32.85;;
25123;SDS011;13104;51.030;4.686;2022-11-20T08:06:31;71.57;;;34.17;;
25123;SDS011;13104;51.030;4.686;2022-11-20T08:08:57;73.88;;;32.78;;
25123;SDS011;13104;51.030;4.686;2022-11-20T08:11:24;67.18;;;32.88;;
25123;SDS011;13104;51.030;4.686;2022-11-20T08:14:09;76.88;;;33.67;;
25123;SDS011;13104;51.030;4.686;2022-11-20T08:16:38;73.57;;;33.45;;
25123;SDS011;13104;51.030;4.686;2022-11-20T08:19:04;76.03;;;32.92;;
25123;SDS011;13104;51.030;4.686;2022-11-20T08:21:30;75.55;;;34.60;;
25123;SDS011;13104;51.030;4.686;2022-11-20T08:23:57;72.07;;;33.08;;
25123;SDS011;13104;51.030;4.686;2022-11-20T08:26:24;69.63;;;32.20;;
25123;SDS011;13104;51.030;4.686;2022-11-20T08:28:53;70.43;;;32.92;;
25123;SDS011;13104;51.030;4.686;2022-11-20T08:31:19;70.38;;;33.00;;
25123;SDS011;13104;51.030;4.686;2022-11-20T08:33:45;72.78;;;32.85;;
25123;SDS011;13104;51.030;4.686;2022-11-20T08:36:11;76.90;;;33.33;;
25123;SDS011;13104;51.030;4.686;2022-11-20T08:38:37;69.82;;;32.95;;
25123;SDS011;13104;51.030;4.686;2022-11-20T08:41:04;76.10;;;32.20;;
25123;SDS011;13104;51.030;4.686;2022-11-20T08:43:48;76.82;;;32.05;;
25123;SDS011;13104;51.030;4.686;2022-11-20T08:46:15;73.32;;;33.13;;
25123;SDS011;13104;51.030;4.686;2022-11-20T08:48:41;76.78;;;31.98;;
25123;SDS011;13104;51.030;4.686;2022-11-20T08:51:08;73.60;;;31.38;;
25123;SDS011;13104;51.030;4.686;2022-11-20T08:53:34;78.00;;;34.20;;
25123;SDS011;13104;51.030;4.686;2022-11-20T08:56:00;78.00;;;33.58;;
25123;SDS011;13104;51.030;4.686;2022-11-20T08:58:26;79.10;;;32.60;;
25123;SDS011;13104;51.030;4.686;2022-11-20T09:00:52;75.53;;;34.22;;
25123;SDS011;13104;51.030;4.686;2022-11-20T09:03:18;82.18;;;35.13;;
25123;SDS011;13104;51.030;4.686;2022-11-20T09:05:44;90.55;;;36.28;;
25123;SDS011;13104;51.030;4.686;2022-11-20T09:08:11;82.82;;;35.83;;
25123;SDS011;13104;51.030;4.686;2022-11-20T09:10:37;83.15;;;34.67;;
25123;SDS011;13104;51.030;4.686;2022-11-20T09:13:06;87.85;;;35.78;;
25123;SDS011;13104;51.030;4.686;2022-11-20T09:15:32;87.57;;;34.75;;
25123;SDS011;13104;51.030;4.686;2022-11-20T09:17:59;85.60;;;34.95;;
25123;SDS011;13104;51.030;4.686;2022-11-20T09:20:26;80.57;;;33.03;;
25123;SDS011;13104;51.030;4.686;2022-11-20T09:22:53;94.55;;;34.85;;
25123;SDS011;13104;51.030;4.686;2022-11-20T09:25:19;84.28;;;34.90;;
25123;SDS011;13104;51.030;4.686;2022-11-20T09:27:46;100.55;;;33.85;;
25123;SDS011;13104;51.030;4.686;2022-11-20T09:30:13;90.65;;;34.05;;
25123;SDS011;13104;51.030;4.686;2022-11-20T09:32:39;86.13;;;33.40;;
25123;SDS011;13104;51.030;4.686;2022-11-20T09:35:05;89.68;;;33.97;;
25123;SDS011;13104;51.030;4.686;2022-11-20T09:37:31;96.90;;;34.80;;
25123;SDS011;13104;51.030;4.686;2022-11-20T09:39:58;98.55;;;35.33;;
25123;SDS011;13104;51.030;4.686;2022-11-20T09:53:13;107.10;;;35.45;;
25123;SDS011;13104;51.030;4.686;2022-11-20T09:55:41;98.63;;;34.85;;
25123;SDS011;13104;51.030;4.686;2022-11-20T09:58:11;99.07;;;34.38;;
25123;SDS011;13104;51.030;4.686;2022-11-20T10:00:39;99.38;;;35.22;;
25123;SDS011;13104;51.030;4.686;2022-11-20T10:03:10;106.78;;;36.45;;
25123;SDS011;13104;51.030;4.686;2022-11-20T10:05:42;113.68;;;42.28;;
25123;SDS011;13104;51.030;4.686;2022-11-20T10:08:17;96.05;;;36.03;;
25123;SDS011;13104;51.030;4.686;2022-11-20T10:10:46;115.07;;;40.10;;
25123;SDS011;13104;51.030;4.686;2022-11-20T10:28:30;94.43;;;34.58;;
25123;SDS011;13104;51.030;4.686;2022-11-20T10:31:03;95.50;;;34.72;;
25123;SDS011;13104;51.030;4.686;2022-11-20T10:33:31;103.13;;;33.83;;
25123;SDS011;13104;51.030;4.686;2022-11-20T10:36:15;89.10;;;32.67;;
25123;SDS011;13104;51.030;4.686;2022-11-20T10:38:43;68.87;;;25.50;;
25123;SDS011;13104;51.030;4.686;2022-11-20T10:41:25;100.82;;;40.42;;
25123;SDS011;13104;51.030;4.686;2022-11-20T10:44:03;87.85;;;32.83;;
25123;SDS011;13104;51.030;4.686;2022-11-20T10:46:40;96.18;;;33.67;;
25123;SDS011;13104;51.030;4.686;2022-11-20T10:49:11;87.85;;;32.78;;
25123;SDS011;13104;51.030;4.686;2022-11-20T10:56:53;85.80;;;31.65;;
25123;SDS011;13104;51.030;4.686;2022-11-20T11:01:45;80.93;;;30.95;;
25123;SDS011;13104;51.030;4.686;2022-11-20T11:04:54;76.95;;;30.70;;
25123;SDS011;13104;51.030;4.686;2022-11-20T11:07:19;77.00;;;29.60;;
25123;SDS011;13104;51.030;4.686;2022-11-20T11:09:50;71.35;;;29.13;;
25123;SDS011;13104;51.030;4.686;2022-11-20T11:12:17;66.53;;;27.33;;
25123;SDS011;13104;51.030;4.686;2022-11-20T11:14:45;74.35;;;28.95;;
25123;SDS011;13104;51.030;4.686;2022-11-20T11:17:22;69.95;;;28.13;;
25123;SDS011;13104;51.030;4.686;2022-11-20T11:20:02;66.30;;;26.75;;
25123;SDS011;13104;51.030;4.686;2022-11-20T11:22:29;65.80;;;25.50;;
25123;SDS011;13104;51.030;4.686;2022-11-20T11:24:55;60.35;;;25.42;;
25123;SDS011;13104;51.030;4.686;2022-11-20T11:27:21;60.92;;;25.92;;
25123;SDS011;13104;51.030;4.686;2022-11-20T11:29:47;53.85;;;23.27;;
25123;SDS011;13104;51.030;4.686;2022-11-20T11:32:15;55.03;;;23.92;;
25123;SDS011;13104;51.030;4.686;2022-11-20T11:34:43;63.60;;;24.80;;
25123;SDS011;13104;51.030;4.686;2022-11-20T11:37:13;62.05;;;24.33;;
25123;SDS011;13104;51.030;4.686;2022-11-20T11:39:41;49.20;;;23.13;;
25123;SDS011;13104;51.030;4.686;2022-11-20T11:42:08;46.20;;;21.90;;
25123;SDS011;13104;51.030;4.686;2022-11-20T11:44:37;45.03;;;21.75;;
25123;SDS011;13104;51.030;4.686;2022-11-20T11:47:25;49.38;;;21.83;;
25123;SDS011;13104;51.030;4.686;2022-11-20T11:50:02;47.97;;;20.08;;
25123;SDS011;13104;51.030;4.686;2022-11-20T11:52:28;43.00;;;19.58;;
25123;SDS011;13104;51.030;4.686;2022-11-20T11:54:55;43.15;;;19.35;;
25123;SDS011;13104;51.030;4.686;2022-11-20T11:57:28;42.15;;;19.38;;
25123;SDS011;13104;51.030;4.686;2022-11-20T11:59:57;45.00;;;20.65;;
25123;SDS011;13104;51.030;4.686;2022-11-20T12:10:12;33.47;;;15.57;;
25123;SDS011;13104;51.030;4.686;2022-11-20T12:12:41;30.15;;;14.07;;
25123;SDS011;13104;51.030;4.686;2022-11-20T12:15:22;28.58;;;12.77;;
25123;SDS011;13104;51.030;4.686;2022-11-20T12:17:48;23.05;;;11.63;;
25123;SDS011;13104;51.030;4.686;2022-11-20T12:20:14;22.80;;;10.68;;
25123;SDS011;13104;51.030;4.686;2022-11-20T12:22:48;21.55;;;10.02;;
25123;SDS011;13104;51.030;4.686;2022-11-20T12:25:22;26.45;;;9.32;;
25123;SDS011;13104;51.030;4.686;2022-11-20T12:31:04;11.73;;;5.85;;
25123;SDS011;13104;51.030;4.686;2022-11-20T12:34:05;13.32;;;5.28;;
25123;SDS011;13104;51.030;4.686;2022-11-20T12:38:57;16.98;;;6.75;;
25123;SDS011;13104;51.030;4.686;2022-11-20T12:50:01;8.57;;;3.67;;
25123;SDS011;13104;51.030;4.686;2022-11-20T12:55:02;9.88;;;4.18;;
25123;SDS011;13104;51.030;4.686;2022-11-20T13:00:06;9.40;;;3.45;;
25123;SDS011;13104;51.030;4.686;2022-11-20T13:07:37;12.40;;;3.60;;
25123;SDS011;13104;51.030;4.686;2022-11-20T13:10:04;12.35;;;4.30;;
25123;SDS011;13104;51.030;4.686;2022-11-20T13:12:36;8.70;;;3.58;;
25123;SDS011;13104;51.030;4.686;2022-11-20T13:17:57;11.07;;;4.63;;
25123;SDS011;13104;51.030;4.686;2022-11-20T13:20:23;13.85;;;4.53;;
25123;SDS011;13104;51.030;4.686;2022-11-20T13:22:51;11.60;;;4.07;;
25123;SDS011;13104;51.030;4.686;2022-11-20T13:27:52;14.30;;;4.28;;
25123;SDS011;13104;51.030;4.686;2022-11-20T13:30:21;11.25;;;4.03;;
25123;SDS011;13104;51.030;4.686;2022-11-20T13:32:49;13.52;;;4.47;;
25123;SDS011;13104;51.030;4.686;2022-11-20T13:35:23;12.18;;;4.60;;
25123;SDS011;13104;51.030;4.686;2022-11-20T13:37:58;10.07;;;4.18;;
25123;SDS011;13104;51.030;4.686;2022-11-20T13:40:24;9.90;;;4.72;;
25123;SDS011;13104;51.030;4.686;2022-11-20T13:42:55;15.05;;;4.65;;
25123;SDS011;13104;51.030;4.686;2022-11-20T13:47:48;14.93;;;5.03;;
25123;SDS011;13104;51.030;4.686;2022-11-20T13:50:15;13.65;;;5.25;;
25123;SDS011;13104;51.030;4.686;2022-11-20T13:55:16;13.23;;;4.70;;
25123;SDS011;13104;51.030;4.686;2022-11-20T13:57:57;13.43;;;4.40;;
25123;SDS011;13104;51.030;4.686;2022-11-20T14:00:28;12.05;;;4.65;;
25123;SDS011;13104;51.030;4.686;2022-11-20T14:03:13;8.98;;;4.60;;
25123;SDS011;13104;51.030;4.686;2022-11-20T14:05:52;10.32;;;4.45;;
25123;SDS011;13104;51.030;4.686;2022-11-20T14:08:25;11.10;;;4.70;;
25123;SDS011;13104;51.030;4.686;2022-11-20T14:11:01;13.40;;;4.60;;
25123;SDS011;13104;51.030;4.686;2022-11-20T14:13:28;8.13;;;4.45;;
25123;SDS011;13104;51.030;4.686;2022-11-20T14:15:56;12.05;;;5.43;;
25123;SDS011;13104;51.030;4.686;2022-11-20T14:18:22;8.70;;;4.78;;
25123;SDS011;13104;51.030;4.686;2022-11-20T14:20:49;8.68;;;5.18;;
25123;SDS011;13104;51.030;4.686;2022-11-20T14:23:23;12.18;;;5.70;;
25123;SDS011;13104;51.030;4.686;2022-11-20T14:25:49;11.20;;;5.47;;
25123;SDS011;13104;51.030;4.686;2022-11-20T14:28:28;9.10;;;5.05;;
25123;SDS011;13104;51.030;4.686;2022-11-20T14:30:55;12.43;;;5.65;;
25123;SDS011;13104;51.030;4.686;2022-11-20T14:33:22;14.02;;;5.68;;
25123;SDS011;13104;51.030;4.686;2022-11-20T14:35:55;12.55;;;5.40;;
25123;SDS011;13104;51.030;4.686;2022-11-20T14:38:24;8.27;;;4.80;;
25123;SDS011;13104;51.030;4.686;2022-11-20T14:40:50;9.30;;;4.97;;
25123;SDS011;13104;51.030;4.686;2022-11-20T14:45:43;10.15;;;4.70;;
25123;SDS011;13104;51.030;4.686;2022-11-20T14:48:10;8.05;;;5.07;;
25123;SDS011;13104;51.030;4.686;2022-11-20T14:50:37;11.48;;;4.97;;
25123;SDS011;13104;51.030;4.686;2022-11-20T14:53:03;10.95;;;4.65;;
25123;SDS011;13104;51.030;4.686;2022-11-20T14:55:34;5.32;;;3.33;;
25123;SDS011;13104;51.030;4.686;2022-11-20T15:00:30;7.50;;;3.78;;
25123;SDS011;13104;51.030;4.686;2022-11-20T15:02:56;4.78;;;3.42;;
25123;SDS011;13104;51.030;4.686;2022-11-20T15:05:23;9.73;;;4.32;;
25123;SDS011;13104;51.030;4.686;2022-11-20T15:07:51;7.85;;;3.65;;
25123;SDS011;13104;51.030;4.686;2022-11-20T15:10:24;3.90;;;2.95;;
25123;SDS011;13104;51.030;4.686;2022-11-20T15:12:52;6.75;;;3.75;;
25123;SDS011;13104;51.030;4.686;2022-11-20T15:15:21;5.40;;;3.53;;
25123;SDS011;13104;51.030;4.686;2022-11-20T15:17:47;9.23;;;5.05;;
25123;SDS011;13104;51.030;4.686;2022-11-20T15:20:14;10.05;;;5.20;;
25123;SDS011;13104;51.030;4.686;2022-11-20T15:22:40;7.45;;;4.68;;
25123;SDS011;13104;51.030;4.686;2022-11-20T15:25:16;9.40;;;4.43;;
25123;SDS011;13104;51.030;4.686;2022-11-20T15:27:43;10.65;;;7.03;;
25123;SDS011;13104;51.030;4.686;2022-11-20T15:30:13;8.70;;;4.90;;
25123;SDS011;13104;51.030;4.686;2022-11-20T15:32:40;14.07;;;7.50;;
25123;SDS011;13104;51.030;4.686;2022-11-20T15:35:06;9.90;;;7.43;;
25123;SDS011;13104;51.030;4.686;2022-11-20T15:37:32;11.70;;;7.55;;
25123;SDS011;13104;51.030;4.686;2022-11-20T15:39:58;13.77;;;8.90;;
25123;SDS011;13104;51.030;4.686;2022-11-20T15:42:24;9.63;;;6.03;;
25123;SDS011;13104;51.030;4.686;2022-11-20T15:44:50;11.80;;;8.13;;
25123;SDS011;13104;51.030;4.686;2022-11-20T15:47:16;12.30;;;7.78;;
25123;SDS011;13104;51.030;4.686;2022-11-20T15:49:42;18.20;;;9.50;;
25123;SDS011;13104;51.030;4.686;2022-11-20T15:52:15;18.65;;;8.88;;
25123;SDS011;13104;51.030;4.686;2022-11-20T15:54:41;14.52;;;8.60;;
25123;SDS011;13104;51.030;4.686;2022-11-20T15:57:07;15.27;;;9.32;;